KGVE/GVE METAR and TAF weather

Enter ICAO airport designator
Station Type Date Time Source
KGVE METAR 2019/10/21 04:55 UTC NOAA

KGVE 210455Z AUTO 00000KT 10SM CLR 12/12 A2999 RMK AO1 T01230123 401420101


Station Type Date Time Source
KGVE Decoded METAR 2019/10/21 04:55 UTC NOAA

Station name not available
Oct 21, 2019 - 12:55 AM EDT / 2019.10.21 0455 UTC
Wind: Calm:0
Visibility: 10 mile(s):0
Sky conditions: clear
Temperature: 54.1 F (12.3 C)
Dew Point: 54.1 F (12.3 C)
Relative Humidity: 100%
Pressure (altimeter): 29.99 in. Hg (1015 hPa)
ob: KGVE 210455Z AUTO 00000KT 10SM CLR 12/12 A2999 RMK AO1 T01230123 401420101
cycle: 5

Station Type Date Time Source
KGVE TAF UTC NOAA

Error!

Example: see airport list